createdAt,value
2022-08-12T00:00:50.616Z,57.54
2022-08-12T00:03:36.677Z,57.79
2022-08-12T00:06:23.081Z,57.83
2022-08-12T00:09:08.903Z,58.17
2022-08-12T00:11:55.477Z,58.39
2022-08-12T00:14:42.792Z,58.45
2022-08-12T00:17:28.585Z,58.34
2022-08-12T00:20:14.522Z,58.42
2022-08-12T00:23:00.407Z,58.47
2022-08-12T00:26:20.860Z,58.63
2022-08-12T00:29:02.002Z,58.78
2022-08-12T00:31:48.956Z,58.76
2022-08-12T00:34:35.825Z,59.07
2022-08-12T00:37:22.724Z,59.33
2022-08-12T00:40:11.543Z,59.39
2022-08-12T00:42:39.990Z,59.51
2022-08-12T00:45:08.736Z,59.46
2022-08-12T00:47:38.835Z,59.62
2022-08-12T00:50:08.004Z,59.77
2022-08-12T00:52:36.611Z,59.98
2022-08-12T00:55:06.308Z,60.16
2022-08-12T00:57:36.936Z,60.26
2022-08-12T01:00:09.240Z,60.54
2022-08-12T01:02:40.506Z,60.79
2022-08-12T01:05:29.105Z,60.96
2022-08-12T01:08:15.008Z,61.45
2022-08-12T01:11:03.179Z,62.02
2022-08-12T01:13:34.162Z,62.35
2022-08-12T01:16:04.189Z,62.37
2022-08-12T01:18:37.917Z,62.77
2022-08-12T01:21:12.776Z,62.80
2022-08-12T01:23:51.593Z,62.71
2022-08-12T01:26:23.282Z,62.55
2022-08-12T01:28:53.841Z,63.16
2022-08-12T01:31:24.109Z,62.99
2022-08-12T01:33:59.721Z,63.79
2022-08-12T01:36:29.178Z,64.10
2022-08-12T01:39:00.022Z,65.01
2022-08-12T01:41:31.955Z,65.02
2022-08-12T01:44:01.898Z,65.41
2022-08-12T01:46:40.623Z,65.73
2022-08-12T01:49:21.747Z,65.70
2022-08-12T01:52:20.915Z,66.33
2022-08-12T01:54:46.000Z,66.26
2022-08-12T01:57:58.139Z,66.40
2022-08-12T02:00:12.264Z,66.85
2022-08-12T02:02:46.604Z,67.17
2022-08-12T02:05:36.300Z,67.11
2022-08-12T02:08:46.590Z,67.19
2022-08-12T02:11:21.389Z,67.10
2022-08-12T02:14:14.299Z,67.72
2022-08-12T02:16:59.884Z,67.46
2022-08-12T02:19:41.274Z,67.28
2022-08-12T02:22:18.416Z,66.94
2022-08-12T02:24:47.417Z,66.47
2022-08-12T02:27:16.373Z,66.09
2022-08-12T02:29:45.816Z,65.78
2022-08-12T02:32:14.532Z,65.55
2022-08-12T02:34:44.546Z,65.63
2022-08-12T02:37:15.395Z,65.74
2022-08-12T02:39:49.509Z,66.07
2022-08-12T02:42:20.157Z,66.16
2022-08-12T02:44:52.293Z,66.70
2022-08-12T02:47:58.893Z,67.15
2022-08-12T02:50:11.878Z,67.50
2022-08-12T02:52:40.324Z,68.34
2022-08-12T02:55:28.723Z,68.35
2022-08-12T02:58:06.709Z,68.74
2022-08-12T03:00:39.144Z,68.76
2022-08-12T03:03:10.086Z,68.99
2022-08-12T03:05:45.340Z,69.07
2022-08-12T03:08:22.348Z,68.72
2022-08-12T03:11:06.262Z,68.65
2022-08-12T03:13:42.922Z,69.22
2022-08-12T03:16:12.317Z,68.72
2022-08-12T03:18:45.754Z,69.23
2022-08-12T03:21:17.490Z,69.23
2022-08-12T03:24:07.196Z,69.48
2022-08-12T03:26:36.810Z,69.45
2022-08-12T03:29:06.847Z,69.50
2022-08-12T03:31:36.290Z,69.51
2022-08-12T03:34:06.869Z,69.39
2022-08-12T03:36:36.247Z,69.80
2022-08-12T03:39:37.009Z,69.63
2022-08-12T03:42:12.690Z,69.68
2022-08-12T03:45:01.011Z,69.54
2022-08-12T03:47:52.192Z,69.50
2022-08-12T03:50:38.527Z,69.05
2022-08-12T03:53:25.199Z,69.13
2022-08-12T03:56:13.083Z,69.15
2022-08-12T03:58:58.976Z,69.22
2022-08-12T04:01:28.496Z,69.04
2022-08-12T04:03:58.062Z,69.09
2022-08-12T04:06:35.229Z,68.42
2022-08-12T04:09:16.192Z,68.54
2022-08-12T04:12:04.305Z,68.03
2022-08-12T04:14:33.378Z,67.39
2022-08-12T04:17:02.184Z,66.43
2022-08-12T04:19:32.007Z,65.30
2022-08-12T04:22:03.532Z,64.69
2022-08-12T04:24:34.605Z,63.96
2022-08-12T04:27:05.418Z,63.25
2022-08-12T04:30:16.913Z,62.85
2022-08-12T04:32:22.441Z,61.90
2022-08-12T04:34:51.991Z,61.85
2022-08-12T04:37:20.082Z,61.27
2022-08-12T04:39:48.876Z,60.44
2022-08-12T04:42:17.030Z,59.55
2022-08-12T04:44:45.052Z,59.33
2022-08-12T04:47:15.111Z,58.40
2022-08-12T04:49:45.473Z,57.87
2022-08-12T04:52:15.681Z,57.24
2022-08-12T04:54:44.556Z,56.97
2022-08-12T04:57:12.617Z,56.89
2022-08-12T04:59:47.551Z,56.47
2022-08-12T05:02:21.134Z,55.95
2022-08-12T05:04:52.576Z,54.96
2022-08-12T05:07:24.356Z,53.97
2022-08-12T05:09:59.190Z,52.84
2022-08-12T05:12:33.486Z,51.70
2022-08-12T05:15:01.635Z,50.90
2022-08-12T05:17:29.674Z,50.15
2022-08-12T05:19:58.457Z,49.65
2022-08-12T05:22:28.373Z,49.22
2022-08-12T05:24:56.361Z,48.93
2022-08-12T05:27:24.324Z,48.64
2022-08-12T05:30:06.893Z,48.47
2022-08-12T05:32:37.350Z,47.91
2022-08-12T05:35:08.075Z,47.08
2022-08-12T05:37:37.427Z,46.68
2022-08-12T05:40:10.993Z,46.62
2022-08-12T05:42:39.855Z,46.76
2022-08-12T05:45:09.198Z,46.17
2022-08-12T05:47:52.769Z,45.57
2022-08-12T05:50:22.203Z,45.02
2022-08-12T05:52:52.949Z,45.72
2022-08-12T05:55:24.158Z,44.98
2022-08-12T05:57:55.222Z,44.80
2022-08-12T06:00:25.636Z,44.33
2022-08-12T06:02:57.054Z,43.75
2022-08-12T06:05:25.151Z,42.98
2022-08-12T06:08:00.152Z,42.71
2022-08-12T06:10:32.210Z,42.74
2022-08-12T06:13:02.444Z,41.92
2022-08-12T06:15:31.389Z,41.55
2022-08-12T06:18:05.360Z,40.81
2022-08-12T06:20:42.174Z,40.67
2022-08-12T06:23:11.855Z,39.12
2022-08-12T06:25:40.767Z,39.28
2022-08-12T06:28:17.508Z,39.19
2022-08-12T06:30:53.096Z,38.67
2022-08-12T06:33:55.949Z,38.96
2022-08-12T06:36:24.988Z,40.03
2022-08-12T06:38:59.597Z,39.67
2022-08-12T06:42:17.733Z,39.05
2022-08-12T06:44:33.789Z,39.06
2022-08-12T06:47:01.766Z,38.56
2022-08-12T06:49:34.738Z,37.81
2022-08-12T06:52:04.408Z,37.42
2022-08-12T06:54:35.356Z,36.92
2022-08-12T06:57:57.015Z,36.44
2022-08-12T06:59:51.592Z,36.48
2022-08-12T07:02:22.563Z,36.48
2022-08-12T07:04:52.580Z,36.00
2022-08-12T07:07:21.127Z,35.61
2022-08-12T07:10:04.087Z,35.05
2022-08-12T07:12:35.280Z,36.67
2022-08-12T07:15:05.161Z,36.51
2022-08-12T07:17:37.747Z,36.03
2022-08-12T07:20:08.202Z,35.56
2022-08-12T07:22:36.607Z,35.65
2022-08-12T07:25:24.616Z,36.42
2022-08-12T07:27:54.412Z,36.36
2022-08-12T07:30:22.996Z,36.62
2022-08-12T07:32:51.750Z,36.01
2022-08-12T07:35:20.364Z,35.52
2022-08-12T07:37:50.570Z,35.46
2022-08-12T07:40:20.306Z,34.67
2022-08-12T07:42:48.552Z,33.84
2022-08-12T07:45:16.832Z,33.81
2022-08-12T07:47:44.877Z,35.01
2022-08-12T07:50:13.758Z,34.85
2022-08-12T07:52:43.647Z,34.28
2022-08-12T07:55:12.797Z,33.61
2022-08-12T07:57:52.422Z,33.69
2022-08-12T08:00:20.996Z,33.82
2022-08-12T08:02:50.357Z,33.71
2022-08-12T08:05:19.472Z,32.66
2022-08-12T08:07:47.615Z,33.34
2022-08-12T08:10:16.622Z,34.23
2022-08-12T08:13:04.405Z,34.27
2022-08-12T08:16:01.098Z,33.60
2022-08-12T08:18:26.920Z,32.39
2022-08-12T08:20:56.901Z,32.79
2022-08-12T08:23:46.938Z,33.49
2022-08-12T08:26:25.844Z,33.97
2022-08-12T08:28:53.873Z,34.32
2022-08-12T08:31:23.183Z,33.73
2022-08-12T08:34:05.416Z,32.35
2022-08-12T08:36:39.975Z,31.83
2022-08-12T08:39:07.966Z,32.36
2022-08-12T08:42:15.213Z,32.69
2022-08-12T08:44:42.130Z,31.43
2022-08-12T08:47:13.506Z,31.15
2022-08-12T08:49:42.444Z,31.09
2022-08-12T08:52:11.726Z,30.96
2022-08-12T08:54:40.584Z,30.87
2022-08-12T08:57:09.242Z,31.83
2022-08-12T08:59:37.541Z,31.28
2022-08-12T09:02:07.695Z,31.59
2022-08-12T09:05:12.700Z,32.09
2022-08-12T09:07:51.134Z,32.01
2022-08-12T09:10:31.357Z,31.52
2022-08-12T09:13:23.712Z,31.39
2022-08-12T09:15:59.597Z,31.29
2022-08-12T09:18:33.215Z,31.29
2022-08-12T09:21:03.822Z,31.01
2022-08-12T09:29:14.128Z,30.85
2022-08-12T09:32:08.041Z,32.16
2022-08-12T09:34:33.463Z,32.73
2022-08-12T09:37:19.899Z,33.37
2022-08-12T09:40:00.886Z,32.90
2022-08-12T09:43:11.271Z,32.67
2022-08-12T09:46:06.823Z,32.57
2022-08-12T09:48:35.804Z,31.70
2022-08-12T09:51:17.221Z,30.79
2022-08-12T09:54:08.991Z,30.84
2022-08-12T09:56:58.791Z,29.77
2022-08-12T10:00:17.195Z,30.56
2022-08-12T10:02:45.762Z,31.23
2022-08-12T10:05:04.963Z,31.46
2022-08-12T10:07:39.639Z,31.24
2022-08-12T10:10:23.995Z,31.12
2022-08-12T10:13:14.676Z,31.06
2022-08-12T10:16:05.034Z,32.44
2022-08-12T10:18:35.477Z,32.61
2022-08-12T10:21:08.618Z,32.60
2022-08-12T10:23:40.049Z,32.46
2022-08-12T10:26:36.753Z,31.64
2022-08-12T10:30:38.248Z,31.38
2022-08-12T10:32:21.574Z,31.40
2022-08-12T10:34:53.360Z,31.70
2022-08-12T10:38:35.647Z,31.61
2022-08-12T10:40:25.363Z,32.03
2022-08-12T10:43:16.777Z,32.39
2022-08-12T10:45:49.718Z,32.15
2022-08-12T10:48:33.688Z,32.26
2022-08-12T10:51:51.629Z,31.36
2022-08-12T10:54:00.549Z,31.15
2022-08-12T10:56:34.670Z,31.46
2022-08-12T10:59:10.777Z,32.24
2022-08-12T11:04:15.080Z,32.22
2022-08-12T11:04:49.240Z,33.33
2022-08-12T11:08:36.796Z,33.02
2022-08-12T11:10:09.625Z,32.20
2022-08-12T11:12:58.904Z,32.51
2022-08-12T11:16:02.688Z,32.66
2022-08-12T11:18:18.647Z,31.87
2022-08-12T11:20:48.881Z,32.09
2022-08-12T11:23:36.294Z,31.64
2022-08-12T11:26:07.914Z,30.50
2022-08-12T11:28:38.371Z,30.94
2022-08-12T11:31:12.075Z,30.74
2022-08-12T11:34:04.406Z,30.95
2022-08-12T11:36:30.658Z,31.98
2022-08-12T11:39:04.518Z,31.24
2022-08-12T11:41:34.709Z,32.05
2022-08-12T11:44:36.874Z,32.24
2022-08-12T11:46:55.556Z,31.43
2022-08-12T11:49:30.784Z,31.38
2022-08-12T11:52:04.193Z,31.82
2022-08-12T11:54:50.757Z,32.46
2022-08-12T11:58:01.237Z,33.22
2022-08-12T12:02:02.279Z,33.47
2022-08-12T12:02:57.949Z,33.63
2022-08-12T12:05:28.540Z,33.68
2022-08-12T12:08:37.700Z,32.82
2022-08-12T12:10:56.180Z,33.16
2022-08-12T12:14:08.062Z,33.32
2022-08-12T12:16:12.260Z,32.55
2022-08-12T12:18:42.598Z,32.21
2022-08-12T12:21:10.839Z,32.66
2022-08-12T12:23:40.723Z,33.18
2022-08-12T12:26:35.050Z,32.98
2022-08-12T12:29:03.387Z,33.31
2022-08-12T12:32:10.175Z,33.17
2022-08-12T12:34:30.380Z,33.63
2022-08-12T12:37:00.823Z,33.72
2022-08-12T12:39:29.226Z,33.61
2022-08-12T12:42:42.843Z,34.06
2022-08-12T12:45:19.413Z,34.17
2022-08-12T12:47:58.142Z,33.98
2022-08-12T12:50:35.286Z,34.35
2022-08-12T12:53:04.427Z,34.39
2022-08-12T12:55:35.675Z,34.71
2022-08-12T12:58:04.781Z,35.00
2022-08-12T13:00:33.618Z,35.02
2022-08-12T13:03:02.201Z,35.06
2022-08-12T13:05:42.596Z,35.00
2022-08-12T13:08:28.124Z,35.16
2022-08-12T13:11:05.163Z,34.80
2022-08-12T13:14:08.567Z,34.89
2022-08-12T13:16:23.024Z,35.01
2022-08-12T13:18:52.409Z,35.45
2022-08-12T13:21:33.505Z,35.63
2022-08-12T13:24:09.878Z,35.71
2022-08-12T13:26:40.089Z,35.62
2022-08-12T13:29:11.121Z,35.65
2022-08-12T13:31:46.443Z,35.91
2022-08-12T13:34:34.570Z,35.99
2022-08-12T13:37:09.852Z,35.28
2022-08-12T13:39:38.563Z,35.25
2022-08-12T13:42:13.883Z,34.89
2022-08-12T13:44:42.935Z,35.06
2022-08-12T13:47:19.899Z,35.27
2022-08-12T13:49:53.851Z,35.44
2022-08-12T13:52:25.703Z,35.55
2022-08-12T13:54:56.155Z,35.33
2022-08-12T13:57:28.935Z,35.23
2022-08-12T14:00:00.792Z,35.00
2022-08-12T14:02:29.786Z,34.85
2022-08-12T14:04:57.685Z,34.95
2022-08-12T14:07:27.485Z,35.44
2022-08-12T14:10:16.356Z,35.57
2022-08-12T14:12:54.391Z,35.41
2022-08-12T14:15:31.187Z,35.30
2022-08-12T14:18:09.567Z,35.39
2022-08-12T14:20:43.769Z,35.65
2022-08-12T14:24:04.262Z,35.71
2022-08-12T14:26:11.995Z,36.33
2022-08-12T14:28:45.183Z,36.40
2022-08-12T14:31:31.290Z,36.26
2022-08-12T14:34:00.278Z,35.70
2022-08-12T14:36:34.040Z,35.72
2022-08-12T14:39:04.981Z,35.30
2022-08-12T14:41:36.924Z,35.12
2022-08-12T14:44:57.775Z,35.11
2022-08-12T14:47:07.761Z,35.49
2022-08-12T14:50:41.675Z,34.86
2022-08-12T14:53:11.651Z,35.14
2022-08-12T14:58:03.669Z,35.29
2022-08-12T15:00:52.181Z,35.33
2022-08-12T15:03:23.250Z,35.75
2022-08-12T15:06:05.760Z,36.20
2022-08-12T15:08:40.539Z,35.94
2022-08-12T15:11:13.519Z,36.24
2022-08-12T15:13:45.666Z,36.10
2022-08-12T15:16:14.356Z,35.80
2022-08-12T15:18:55.061Z,35.90
2022-08-12T15:21:25.145Z,35.69
2022-08-12T15:24:13.065Z,35.63
2022-08-12T15:26:42.593Z,35.68
2022-08-12T15:29:10.564Z,35.92
2022-08-12T15:32:00.899Z,35.70
2022-08-12T15:34:30.874Z,36.00
2022-08-12T15:36:58.960Z,36.02
2022-08-12T15:39:28.385Z,35.82
2022-08-12T15:42:01.935Z,35.99
2022-08-12T15:44:37.763Z,35.48
2022-08-12T15:47:07.279Z,35.77
2022-08-12T15:49:54.417Z,35.58
2022-08-12T15:52:28.245Z,35.73
2022-08-12T15:54:58.725Z,36.03
2022-08-12T15:57:33.305Z,36.19
2022-08-12T16:00:07.380Z,35.87
2022-08-12T16:02:42.059Z,35.97
2022-08-12T16:06:12.622Z,35.88
2022-08-12T16:08:15.266Z,35.76
2022-08-12T16:10:45.680Z,35.74
2022-08-12T16:13:18.159Z,36.09
2022-08-12T16:16:02.486Z,35.85
2022-08-12T16:18:33.374Z,35.55
2022-08-12T16:21:02.269Z,35.62
2022-08-12T16:23:51.981Z,35.84
2022-08-12T16:26:32.757Z,35.95
2022-08-12T16:29:15.344Z,35.94
2022-08-12T16:31:44.843Z,35.62
2022-08-12T16:34:25.442Z,35.80
2022-08-12T16:36:54.244Z,35.99
2022-08-12T16:39:22.506Z,35.78
2022-08-12T16:41:50.765Z,35.84
2022-08-12T16:44:20.192Z,36.11
2022-08-12T16:46:57.587Z,36.34
2022-08-12T16:49:26.412Z,36.43
2022-08-12T16:52:07.864Z,36.68
2022-08-12T16:54:40.553Z,36.68
2022-08-12T16:57:09.565Z,36.98
2022-08-12T16:59:54.060Z,37.34
2022-08-12T17:02:34.050Z,37.17
2022-08-12T17:05:04.607Z,36.93
2022-08-12T17:07:37.870Z,37.08
2022-08-12T17:10:07.525Z,37.34
2022-08-12T17:12:37.465Z,37.31
2022-08-12T17:15:50.295Z,37.41
2022-08-12T17:18:42.624Z,37.77
2022-08-12T17:20:47.589Z,37.91
2022-08-12T17:23:17.035Z,37.73
2022-08-12T17:25:46.455Z,38.08
2022-08-12T17:28:17.739Z,38.13
2022-08-12T17:30:59.589Z,38.34
2022-08-12T17:33:33.696Z,38.79
2022-08-12T17:36:05.418Z,38.71
2022-08-12T17:38:34.614Z,38.42
2022-08-12T17:41:08.163Z,38.61
2022-08-12T17:43:58.330Z,39.07
2022-08-12T17:46:32.080Z,39.16
2022-08-12T17:49:19.080Z,38.99
2022-08-12T17:52:02.519Z,39.20
2022-08-12T17:54:31.639Z,39.23
2022-08-12T17:57:01.735Z,39.31
2022-08-12T17:59:48.509Z,39.39
2022-08-12T18:02:25.433Z,39.41
2022-08-12T18:05:09.539Z,39.68
2022-08-12T18:07:39.503Z,39.80
2022-08-12T18:10:08.466Z,39.95
2022-08-12T18:12:42.708Z,40.22
2022-08-12T18:15:26.309Z,40.33
2022-08-12T18:18:16.735Z,40.39
2022-08-12T18:20:46.305Z,40.49
2022-08-12T18:23:14.253Z,40.69
2022-08-12T18:26:14.766Z,40.72
2022-08-12T18:28:47.939Z,40.94
2022-08-12T18:31:17.942Z,41.29
2022-08-12T18:33:47.345Z,41.51
2022-08-12T18:36:22.589Z,41.57
2022-08-12T18:38:56.091Z,41.81
2022-08-12T18:41:33.534Z,41.89
2022-08-12T18:44:07.854Z,42.12
2022-08-12T18:46:47.261Z,42.15
2022-08-12T18:49:21.681Z,42.44
2022-08-12T18:51:55.059Z,42.57
2022-08-12T18:54:26.748Z,42.79
2022-08-12T18:56:56.429Z,43.08
2022-08-12T19:00:00.783Z,43.34
2022-08-12T19:02:21.769Z,43.67
2022-08-12T19:04:54.113Z,44.00
2022-08-12T19:07:23.372Z,44.41
2022-08-12T19:09:58.767Z,45.26
2022-08-12T19:12:57.412Z,45.49
2022-08-12T19:15:27.365Z,45.50
2022-08-12T19:18:01.071Z,45.85
2022-08-12T19:20:32.829Z,45.45
2022-08-12T19:23:16.099Z,45.83
2022-08-12T19:26:01.642Z,45.89
2022-08-12T19:28:34.784Z,45.90
2022-08-12T19:31:56.132Z,45.91
2022-08-12T19:35:06.529Z,46.35
2022-08-12T19:37:17.237Z,46.89
2022-08-12T19:40:09.659Z,47.71
2022-08-12T19:42:36.165Z,48.11
2022-08-12T19:45:12.339Z,48.33
2022-08-12T19:47:44.660Z,48.68
2022-08-12T19:50:20.084Z,48.80
2022-08-12T19:52:51.376Z,49.24
2022-08-12T19:55:23.333Z,49.18
2022-08-12T19:58:01.482Z,49.62
2022-08-12T20:00:30.941Z,50.13
2022-08-12T20:03:00.702Z,50.44
2022-08-12T20:06:04.596Z,50.83
2022-08-12T20:08:34.194Z,51.08
2022-08-12T20:12:09.617Z,51.45
2022-08-12T20:14:01.045Z,51.55
2022-08-12T20:16:52.240Z,51.89
2022-08-12T20:19:21.405Z,52.46
2022-08-12T20:21:51.764Z,52.64
2022-08-12T20:24:31.474Z,52.68
2022-08-12T20:27:00.221Z,52.81
2022-08-12T20:29:36.614Z,53.14
2022-08-12T20:32:14.408Z,53.48
2022-08-12T20:34:49.004Z,53.72
2022-08-12T20:37:22.376Z,53.40
2022-08-12T20:40:12.593Z,53.43
2022-08-12T20:42:41.334Z,53.08
2022-08-12T20:45:10.196Z,53.43
2022-08-12T20:47:42.113Z,53.15
2022-08-12T20:50:15.455Z,53.22
2022-08-12T20:52:49.112Z,53.24
2022-08-12T20:55:19.265Z,52.76
2022-08-12T20:58:02.504Z,52.64
2022-08-12T21:00:33.233Z,53.27
2022-08-12T21:03:21.663Z,53.15
2022-08-12T21:06:11.839Z,53.88
2022-08-12T21:08:42.695Z,53.92
2022-08-12T21:11:12.018Z,54.23
2022-08-12T21:13:42.164Z,54.16
2022-08-12T21:16:11.524Z,54.42
2022-08-12T21:18:39.695Z,55.65
2022-08-12T21:21:23.227Z,55.44
2022-08-12T21:23:56.540Z,55.40
2022-08-12T21:26:29.063Z,55.75
2022-08-12T21:29:01.738Z,55.56
2022-08-12T21:32:36.168Z,56.15
2022-08-12T21:34:29.209Z,56.36
2022-08-12T21:37:12.869Z,56.78
2022-08-12T21:39:41.384Z,57.11
2022-08-12T21:42:27.012Z,57.11
2022-08-12T21:45:48.350Z,57.29
2022-08-12T21:47:46.395Z,57.73
2022-08-12T21:50:17.918Z,58.21
2022-08-12T21:52:49.060Z,58.77
2022-08-12T21:55:20.218Z,59.55
2022-08-12T21:57:53.914Z,60.33
2022-08-12T22:00:34.257Z,61.51
2022-08-12T22:04:02.256Z,60.94
2022-08-12T22:06:20.359Z,60.98
2022-08-12T22:09:01.969Z,62.00
2022-08-12T22:11:42.052Z,61.53
2022-08-12T22:14:17.880Z,61.12
2022-08-12T22:16:50.266Z,61.12
2022-08-12T22:19:19.304Z,61.51
2022-08-12T22:21:53.067Z,61.22
2022-08-12T22:24:25.777Z,59.97
2022-08-12T22:26:55.270Z,59.73
2022-08-12T22:29:42.424Z,59.38
2022-08-12T22:32:11.296Z,58.69
2022-08-12T22:34:40.314Z,58.38
2022-08-12T22:37:19.811Z,58.05
2022-08-12T22:39:49.306Z,57.67
2022-08-12T22:42:35.712Z,57.47
2022-08-12T22:45:23.768Z,57.08
2022-08-12T22:47:54.773Z,56.82
2022-08-12T22:50:27.581Z,56.68
2022-08-12T22:53:14.606Z,56.59
2022-08-12T22:56:00.501Z,56.77
2022-08-12T22:58:33.447Z,56.79
2022-08-12T23:01:03.697Z,56.83
2022-08-12T23:03:49.227Z,56.99
2022-08-12T23:06:21.256Z,57.02
2022-08-12T23:08:49.941Z,57.16
2022-08-12T23:11:23.632Z,57.23
2022-08-12T23:14:01.647Z,57.31
2022-08-12T23:16:34.217Z,57.41
2022-08-12T23:19:10.729Z,57.40
2022-08-12T23:22:06.455Z,57.69
2022-08-12T23:24:55.789Z,58.06
2022-08-12T23:27:50.462Z,58.32
2022-08-12T23:30:24.975Z,58.49
2022-08-12T23:33:01.410Z,58.38
2022-08-12T23:35:53.718Z,58.58
2022-08-12T23:38:30.987Z,58.67
2022-08-12T23:41:00.978Z,58.99
2022-08-12T23:43:39.921Z,59.09
2022-08-12T23:46:10.465Z,59.31
2022-08-12T23:48:40.856Z,59.44
2022-08-12T23:51:21.956Z,59.61
2022-08-12T23:53:52.905Z,59.73
2022-08-12T23:56:24.574Z,59.67
2022-08-12T23:58:55.270Z,59.50
